createdAt,value
2022-11-20T00:01:15.187Z,5.80
2022-11-20T00:03:42.371Z,5.97
2022-11-20T00:06:11.497Z,5.30
2022-11-20T00:08:38.165Z,5.43
2022-11-20T00:11:21.760Z,4.77
2022-11-20T00:13:50.469Z,5.83
2022-11-20T00:16:20.079Z,5.20
2022-11-20T00:18:47.408Z,5.83
2022-11-20T00:21:19.037Z,4.70
2022-11-20T00:23:45.445Z,5.70
2022-11-20T00:26:14.457Z,5.43
2022-11-20T00:28:41.875Z,6.53
2022-11-20T00:31:11.628Z,5.20
2022-11-20T00:33:38.496Z,6.47
2022-11-20T00:36:07.658Z,6.10
2022-11-20T00:38:34.665Z,7.03
2022-11-20T00:41:03.567Z,5.23
2022-11-20T00:43:29.982Z,4.53
2022-11-20T00:46:04.104Z,4.60
2022-11-20T00:48:31.105Z,5.07
2022-11-20T00:50:58.001Z,5.07
2022-11-20T00:53:24.869Z,5.17
2022-11-20T00:56:13.169Z,4.33
2022-11-20T00:58:42.670Z,5.33
2022-11-20T01:01:12.553Z,5.37
2022-11-20T01:03:41.582Z,6.07
2022-11-20T01:06:16.862Z,6.03
2022-11-20T01:08:44.274Z,5.07
2022-11-20T01:11:18.882Z,5.00
2022-11-20T01:13:46.768Z,4.97
2022-11-20T01:16:33.829Z,4.70
2022-11-20T01:19:02.732Z,4.20
2022-11-20T01:21:34.839Z,4.67
2022-11-20T01:24:02.321Z,4.43
2022-11-20T01:26:30.906Z,5.03
2022-11-20T01:28:58.553Z,5.60
2022-11-20T01:31:34.085Z,5.83
2022-11-20T01:34:03.563Z,5.40
2022-11-20T01:36:31.742Z,4.07
2022-11-20T01:39:04.667Z,5.03
2022-11-20T01:41:51.718Z,5.10
2022-11-20T01:44:21.309Z,4.57
2022-11-20T01:47:01.242Z,4.20
2022-11-20T01:49:37.053Z,4.23
2022-11-20T01:52:15.481Z,3.63
2022-11-20T01:54:48.602Z,3.03
2022-11-20T01:57:17.186Z,3.33
2022-11-20T01:59:51.014Z,2.97
2022-11-20T02:02:17.377Z,3.43
2022-11-20T02:04:44.774Z,3.70
2022-11-20T02:07:11.669Z,2.83
2022-11-20T02:09:38.024Z,2.87
2022-11-20T02:12:04.919Z,2.77
2022-11-20T02:14:31.414Z,3.30
2022-11-20T02:16:58.473Z,2.77
2022-11-20T02:19:30.836Z,3.00
2022-11-20T02:22:06.470Z,2.50
2022-11-20T02:24:32.934Z,2.70
2022-11-20T02:27:07.222Z,2.73
2022-11-20T02:29:38.212Z,2.80
2022-11-20T02:32:04.923Z,2.87
2022-11-20T02:34:31.461Z,2.80
2022-11-20T02:36:59.753Z,3.13
2022-11-20T02:39:28.646Z,2.63
2022-11-20T02:41:56.834Z,2.60
2022-11-20T02:44:23.267Z,2.80
2022-11-20T02:46:49.618Z,3.30
2022-11-20T02:49:17.392Z,3.00
2022-11-20T02:51:43.754Z,2.00
2022-11-20T02:54:10.097Z,2.40
2022-11-20T02:56:39.404Z,2.70
2022-11-20T02:59:05.731Z,2.57
2022-11-20T03:01:32.093Z,2.40
2022-11-20T03:03:58.468Z,2.77
2022-11-20T03:06:24.857Z,2.63
2022-11-20T03:08:51.335Z,2.73
2022-11-20T03:11:17.978Z,2.60
2022-11-20T03:13:44.525Z,2.50
2022-11-20T03:16:14.017Z,2.57
2022-11-20T03:18:41.648Z,2.50
2022-11-20T03:21:08.785Z,2.57
2022-11-20T03:23:35.640Z,2.30
2022-11-20T03:26:31.437Z,2.73
2022-11-20T03:29:00.341Z,3.30
2022-11-20T03:31:30.385Z,2.63
2022-11-20T03:33:58.716Z,3.07
2022-11-20T03:36:25.925Z,2.63
2022-11-20T03:38:54.740Z,3.07
2022-11-20T03:41:23.372Z,2.50
2022-11-20T03:43:50.757Z,2.50
2022-11-20T03:46:17.655Z,2.30
2022-11-20T03:48:48.787Z,2.70
2022-11-20T03:51:20.143Z,2.80
2022-11-20T03:53:48.269Z,2.27
2022-11-20T03:56:17.413Z,2.43
2022-11-20T03:58:44.605Z,2.20
2022-11-20T04:01:13.943Z,2.63
2022-11-20T04:03:42.038Z,2.67
2022-11-20T04:06:11.729Z,2.20
2022-11-20T04:08:38.773Z,2.30
2022-11-20T04:11:11.229Z,2.30
2022-11-20T04:13:37.811Z,3.10
2022-11-20T04:16:05.435Z,3.03
2022-11-20T04:18:31.764Z,2.47
2022-11-20T04:20:59.370Z,2.50
2022-11-20T04:23:28.886Z,2.70
2022-11-20T04:25:55.793Z,2.60
2022-11-20T04:28:22.304Z,2.30
2022-11-20T04:30:48.697Z,2.83
2022-11-20T04:33:15.077Z,2.50
2022-11-20T04:35:41.615Z,2.30
2022-11-20T04:38:08.178Z,2.90
2022-11-20T04:40:34.507Z,2.60
2022-11-20T04:43:00.824Z,3.03
2022-11-20T04:45:27.175Z,2.60
2022-11-20T04:47:53.634Z,2.73
2022-11-20T04:50:19.943Z,3.47
2022-11-20T04:52:46.253Z,2.80
2022-11-20T04:55:12.565Z,2.70
2022-11-20T04:57:39.063Z,3.00
2022-11-20T05:00:06.226Z,3.13
2022-11-20T05:02:33.001Z,2.63
2022-11-20T05:04:59.307Z,2.83
2022-11-20T05:07:25.677Z,2.80
2022-11-20T05:09:52.022Z,3.00
2022-11-20T05:12:18.353Z,2.80
2022-11-20T05:14:45.257Z,3.57
2022-11-20T05:17:12.905Z,3.50
2022-11-20T05:19:39.227Z,3.30
2022-11-20T05:22:06.364Z,5.73
2022-11-20T05:24:32.692Z,3.90
2022-11-20T05:26:59.198Z,3.23
2022-11-20T05:29:25.564Z,3.20
2022-11-20T05:31:51.904Z,3.43
2022-11-20T05:34:18.429Z,3.13
2022-11-20T05:36:44.939Z,3.00
2022-11-20T05:39:11.326Z,2.90
2022-11-20T05:41:37.658Z,3.30
2022-11-20T05:44:04.119Z,3.07
2022-11-20T05:46:30.442Z,3.40
2022-11-20T05:48:58.273Z,3.20
2022-11-20T05:51:25.453Z,3.40
2022-11-20T05:53:51.864Z,3.47
2022-11-20T05:56:22.206Z,3.57
2022-11-20T05:58:49.583Z,3.60
2022-11-20T06:01:18.005Z,3.70
2022-11-20T06:03:48.864Z,3.37
2022-11-20T06:06:16.655Z,3.83
2022-11-20T06:08:43.520Z,3.70
2022-11-20T06:11:13.503Z,4.07
2022-11-20T06:13:42.477Z,3.17
2022-11-20T06:16:11.178Z,3.00
2022-11-20T06:18:38.110Z,3.43
2022-11-20T06:21:10.704Z,2.50
2022-11-20T06:23:37.529Z,3.10
2022-11-20T06:26:06.390Z,2.60
2022-11-20T06:28:33.007Z,2.93
2022-11-20T06:30:59.794Z,2.43
2022-11-20T06:33:26.443Z,2.67
2022-11-20T06:35:58.450Z,3.00
2022-11-20T06:38:27.896Z,2.60
2022-11-20T06:40:54.922Z,3.33
2022-11-20T06:43:22.693Z,2.97
2022-11-20T06:45:54.406Z,3.20
2022-11-20T06:48:21.141Z,3.77
2022-11-20T06:50:47.684Z,3.47
2022-11-20T06:53:14.034Z,3.70
2022-11-20T06:55:44.835Z,3.33
2022-11-20T06:58:11.798Z,3.33
2022-11-20T07:00:38.176Z,3.00
2022-11-20T07:03:05.246Z,3.17
2022-11-20T07:05:31.690Z,3.30
2022-11-20T07:07:58.685Z,3.13
2022-11-20T07:10:25.548Z,2.60
2022-11-20T07:12:53.190Z,2.63
2022-11-20T07:15:21.255Z,2.77
2022-11-20T07:17:47.882Z,3.10
2022-11-20T07:20:15.057Z,3.10
2022-11-20T07:22:42.004Z,3.20
2022-11-20T07:25:09.498Z,3.27
2022-11-20T07:27:36.363Z,3.00
2022-11-20T07:30:04.680Z,3.00
2022-11-20T07:32:31.294Z,3.20
2022-11-20T07:34:57.609Z,3.47
2022-11-20T07:37:24.112Z,3.00
2022-11-20T07:39:50.466Z,3.20
2022-11-20T07:42:16.861Z,2.77
2022-11-20T07:44:43.201Z,3.40
2022-11-20T07:47:09.518Z,3.70
2022-11-20T07:49:35.993Z,3.10
2022-11-20T07:52:04.977Z,2.83
2022-11-20T07:54:31.796Z,3.60
2022-11-20T07:56:58.169Z,3.67
2022-11-20T07:59:24.597Z,3.63
2022-11-20T08:01:50.957Z,4.67
2022-11-20T08:04:17.498Z,3.10
2022-11-20T08:06:43.960Z,3.10
2022-11-20T08:09:10.546Z,3.60
2022-11-20T08:11:55.467Z,3.50
2022-11-20T08:14:21.831Z,2.73
2022-11-20T08:16:49.949Z,3.30
2022-11-20T08:19:18.889Z,3.43
2022-11-20T08:21:45.904Z,3.10
2022-11-20T08:24:12.612Z,2.80
2022-11-20T08:26:40.077Z,2.73
2022-11-20T08:29:07.039Z,3.07
2022-11-20T08:31:33.409Z,2.90
2022-11-20T08:33:59.809Z,3.00
2022-11-20T08:36:26.362Z,2.40
2022-11-20T08:38:56.803Z,2.60
2022-11-20T08:41:27.557Z,2.50
2022-11-20T08:43:55.992Z,2.93
2022-11-20T08:46:23.815Z,2.50
2022-11-20T08:48:50.383Z,2.83
2022-11-20T08:51:17.706Z,2.63
2022-11-20T08:53:44.377Z,2.30
2022-11-20T08:56:10.940Z,2.73
2022-11-20T08:59:01.791Z,3.13
2022-11-20T09:01:24.574Z,2.00
2022-11-20T09:03:51.113Z,2.23
2022-11-20T09:06:17.633Z,2.10
2022-11-20T09:08:43.998Z,2.10
2022-11-20T09:11:10.645Z,2.03
2022-11-20T09:13:37.833Z,1.97
2022-11-20T09:16:07.374Z,1.73
2022-11-20T09:18:34.757Z,1.90
2022-11-20T09:21:02.663Z,1.90
2022-11-20T09:23:33.561Z,1.90
2022-11-20T09:26:03.558Z,1.70
2022-11-20T09:28:31.034Z,2.00
2022-11-20T09:30:57.369Z,2.00
2022-11-20T09:33:23.721Z,2.40
2022-11-20T09:35:50.052Z,2.30
2022-11-20T09:38:16.416Z,1.70
2022-11-20T09:40:59.213Z,2.53
2022-11-20T09:43:57.920Z,1.97
2022-11-20T09:46:43.954Z,1.80
2022-11-20T09:49:34.739Z,2.10
2022-11-20T09:52:26.808Z,2.00
2022-11-20T09:54:55.159Z,2.13
2022-11-20T09:57:26.255Z,2.33
2022-11-20T09:59:59.450Z,2.40
2022-11-20T10:02:35.734Z,2.30
2022-11-20T10:05:28.361Z,2.50
2022-11-20T10:08:02.892Z,2.30
2022-11-20T10:10:42.688Z,2.13
2022-11-20T10:13:32.865Z,1.83
2022-11-20T10:16:36.657Z,2.10
2022-11-20T10:19:20.351Z,2.50
2022-11-20T10:22:12.197Z,2.40
2022-11-20T10:24:55.209Z,2.17
2022-11-20T10:27:27.525Z,2.23
2022-11-20T10:30:10.810Z,2.50
2022-11-20T10:32:43.209Z,2.20
2022-11-20T10:35:36.628Z,2.10
2022-11-20T10:38:10.766Z,1.90
2022-11-20T10:40:46.710Z,1.70
2022-11-20T10:43:16.196Z,2.13
2022-11-20T10:46:00.006Z,1.80
2022-11-20T10:48:28.837Z,1.93
2022-11-20T10:51:31.361Z,2.37
2022-11-20T10:54:07.435Z,2.20
2022-11-20T10:56:48.336Z,2.10
2022-11-20T10:59:55.154Z,1.83
2022-11-20T11:02:33.278Z,1.73
2022-11-20T11:05:15.620Z,1.50
2022-11-20T11:07:43.179Z,2.10
2022-11-20T11:10:26.933Z,2.30
2022-11-20T11:12:53.432Z,2.30
2022-11-20T11:15:37.805Z,2.23
2022-11-20T11:18:04.433Z,1.80
2022-11-20T11:20:31.053Z,1.70
2022-11-20T11:22:59.736Z,2.07
2022-11-20T11:25:36.586Z,2.20
2022-11-20T11:28:25.708Z,2.87
2022-11-20T11:30:52.774Z,2.30
2022-11-20T11:33:22.547Z,1.80
2022-11-20T11:35:53.365Z,1.77
2022-11-20T11:38:38.033Z,1.87
2022-11-20T11:41:05.934Z,2.23
2022-11-20T11:43:54.003Z,1.67
2022-11-20T11:46:35.830Z,1.37
2022-11-20T11:49:16.248Z,1.63
2022-11-20T11:52:14.860Z,1.50
2022-11-20T11:54:51.894Z,1.63
2022-11-20T11:57:28.022Z,1.70
2022-11-20T12:00:09.749Z,1.73
2022-11-20T12:02:53.403Z,1.63
2022-11-20T12:05:30.202Z,1.60
2022-11-20T12:08:27.285Z,1.40
2022-11-20T12:11:25.109Z,1.50
2022-11-20T12:13:59.256Z,1.40
2022-11-20T12:16:25.596Z,1.47
2022-11-20T12:18:53.548Z,1.40
2022-11-20T12:21:28.536Z,2.20
2022-11-20T12:24:07.569Z,1.90
2022-11-20T12:26:46.447Z,1.80
2022-11-20T12:29:27.257Z,2.27
2022-11-20T12:32:15.217Z,1.67
2022-11-20T12:34:58.494Z,2.00
2022-11-20T12:37:38.291Z,1.80
2022-11-20T12:40:34.480Z,1.37
2022-11-20T12:43:39.686Z,2.07
2022-11-20T12:46:17.666Z,1.83
2022-11-20T12:48:50.103Z,1.77
2022-11-20T12:51:25.416Z,2.17
2022-11-20T12:54:07.290Z,1.70
2022-11-20T12:56:43.945Z,1.57
2022-11-20T12:59:17.653Z,1.53
2022-11-20T13:01:51.510Z,1.63
2022-11-20T13:04:40.113Z,1.77
2022-11-20T13:07:15.307Z,1.70
2022-11-20T13:09:46.830Z,1.30
2022-11-20T13:12:24.542Z,2.10
2022-11-20T13:15:15.818Z,1.57
2022-11-20T13:17:52.682Z,2.77
2022-11-20T13:20:20.194Z,3.13
2022-11-20T13:22:51.866Z,1.80
2022-11-20T13:25:34.693Z,1.80
2022-11-20T13:28:05.206Z,2.43
2022-11-20T13:30:32.399Z,2.27
2022-11-20T13:33:01.961Z,1.50
2022-11-20T13:35:41.152Z,1.80
2022-11-20T13:38:14.115Z,1.63
2022-11-20T13:41:24.665Z,1.60
2022-11-20T13:43:53.268Z,1.97
2022-11-20T13:46:25.401Z,1.60
2022-11-20T13:48:55.673Z,2.30
2022-11-20T13:51:31.237Z,1.67
2022-11-20T13:54:18.710Z,1.33
2022-11-20T13:57:10.834Z,1.50
2022-11-20T14:00:05.800Z,1.40
2022-11-20T14:02:32.323Z,1.57
2022-11-20T14:05:00.672Z,1.60
2022-11-20T14:07:35.873Z,1.50
2022-11-20T14:10:02.400Z,1.77
2022-11-20T14:12:34.705Z,1.33
2022-11-20T14:15:01.309Z,1.70
2022-11-20T14:17:35.519Z,1.30
2022-11-20T14:20:13.335Z,1.10
2022-11-20T14:22:39.641Z,1.60
2022-11-20T14:25:15.235Z,1.10
2022-11-20T14:27:43.657Z,1.50
2022-11-20T14:30:22.355Z,1.50
2022-11-20T14:32:50.020Z,1.50
2022-11-20T14:35:26.486Z,1.30
2022-11-20T14:37:53.587Z,1.60
2022-11-20T14:40:26.591Z,1.63
2022-11-20T14:42:53.012Z,1.70
2022-11-20T14:45:20.606Z,1.60
2022-11-20T14:47:47.610Z,1.50
2022-11-20T14:50:19.740Z,1.70
2022-11-20T14:52:56.013Z,1.70
2022-11-20T14:55:31.875Z,1.73
2022-11-20T14:58:04.113Z,1.90
2022-11-20T15:00:33.662Z,1.60
2022-11-20T15:03:00.027Z,1.70
2022-11-20T15:05:46.129Z,1.67
2022-11-20T15:08:13.830Z,1.57
2022-11-20T15:10:49.784Z,1.63
2022-11-20T15:13:37.540Z,1.37
2022-11-20T15:16:10.933Z,2.07
2022-11-20T15:18:40.543Z,1.83
2022-11-20T15:21:15.441Z,2.70
2022-11-20T15:23:42.424Z,1.40
2022-11-20T15:26:14.207Z,1.37
2022-11-20T15:28:45.098Z,1.27
2022-11-20T15:31:16.736Z,1.73
2022-11-20T15:33:43.509Z,1.87
2022-11-20T15:36:10.734Z,1.70
2022-11-20T15:38:37.973Z,1.00
2022-11-20T15:41:04.850Z,1.60
2022-11-20T15:43:31.206Z,1.83
2022-11-20T15:46:23.865Z,1.53
2022-11-20T15:48:55.071Z,2.17
2022-11-20T15:51:29.856Z,1.87
2022-11-20T15:53:57.284Z,1.80
2022-11-20T15:56:24.199Z,1.53
2022-11-20T15:58:50.578Z,1.67
2022-11-20T16:01:19.207Z,2.17
2022-11-20T16:03:46.050Z,1.73
2022-11-20T16:06:12.700Z,1.50
2022-11-20T16:08:39.513Z,1.53
2022-11-20T16:11:05.916Z,2.27
2022-11-20T16:13:51.406Z,2.23
2022-11-20T16:16:30.962Z,1.93
2022-11-20T16:18:57.874Z,1.97
2022-11-20T16:21:33.388Z,1.87
2022-11-20T16:24:01.439Z,1.57
2022-11-20T16:26:28.670Z,2.20
2022-11-20T16:28:55.453Z,2.37
2022-11-20T16:31:22.607Z,2.30
2022-11-20T16:33:53.599Z,2.10
2022-11-20T16:36:21.476Z,2.03
2022-11-20T16:38:53.305Z,3.00
2022-11-20T16:41:19.960Z,3.87
2022-11-20T16:43:51.546Z,4.50
2022-11-20T16:46:20.609Z,4.90
2022-11-20T16:48:54.817Z,4.07
2022-11-20T16:51:21.910Z,3.87
2022-11-20T16:53:50.447Z,4.33
2022-11-20T16:56:19.739Z,4.33
2022-11-20T16:58:47.918Z,4.73
2022-11-20T17:01:16.788Z,3.90
2022-11-20T17:03:46.242Z,4.90
2022-11-20T17:06:17.892Z,5.60
2022-11-20T17:08:45.042Z,5.33
2022-11-20T17:11:14.158Z,5.63
2022-11-20T17:13:40.899Z,5.13
2022-11-20T17:16:10.157Z,6.20
2022-11-20T17:18:36.814Z,7.10
2022-11-20T17:21:05.296Z,6.00
2022-11-20T17:23:33.177Z,5.30
2022-11-20T17:26:06.427Z,5.60
2022-11-20T17:28:33.590Z,5.90
2022-11-20T17:31:05.488Z,5.00
2022-11-20T17:33:33.665Z,4.20
2022-11-20T17:35:59.981Z,4.90
2022-11-20T17:38:26.419Z,4.93
2022-11-20T17:40:53.032Z,4.70
2022-11-20T17:43:19.581Z,4.20
2022-11-20T17:45:46.182Z,4.70
2022-11-20T17:48:12.497Z,5.57
2022-11-20T17:50:38.814Z,5.17
2022-11-20T17:53:05.143Z,5.50
2022-11-20T17:55:55.504Z,5.27
2022-11-20T17:58:22.194Z,5.20
2022-11-20T18:00:48.513Z,4.30
2022-11-20T18:03:14.889Z,4.53
2022-11-20T18:05:41.234Z,3.80
2022-11-20T18:08:07.558Z,4.20
2022-11-20T18:10:35.096Z,4.40
2022-11-20T18:13:01.439Z,3.80
2022-11-20T18:15:27.830Z,4.10
2022-11-20T18:17:54.375Z,4.60
2022-11-20T18:20:29.354Z,4.40
2022-11-20T18:22:57.036Z,5.10
2022-11-20T18:25:23.480Z,4.83
2022-11-20T18:27:49.981Z,4.57
2022-11-20T18:30:18.973Z,3.70
2022-11-20T18:32:45.277Z,3.80
2022-11-20T18:35:11.660Z,3.30
2022-11-20T18:37:37.975Z,3.27
2022-11-20T18:40:04.975Z,3.20
2022-11-20T18:42:49.713Z,2.57
2022-11-20T18:45:16.166Z,3.30
2022-11-20T18:47:43.770Z,3.23
2022-11-20T18:50:10.261Z,3.03
2022-11-20T18:52:44.146Z,3.03
2022-11-20T18:55:11.021Z,3.33
2022-11-20T18:57:37.343Z,3.20
2022-11-20T19:00:09.236Z,2.70
2022-11-20T19:02:40.961Z,2.63
2022-11-20T19:05:08.961Z,2.87
2022-11-20T19:07:35.361Z,3.10
2022-11-20T19:10:03.912Z,3.47
2022-11-20T19:12:30.614Z,3.13
2022-11-20T19:14:56.953Z,2.67
2022-11-20T19:17:23.330Z,2.50
2022-11-20T19:19:50.313Z,2.23
2022-11-20T19:22:17.010Z,2.50
2022-11-20T19:24:43.361Z,2.20
2022-11-20T19:27:09.750Z,2.60
2022-11-20T19:29:36.591Z,2.40
2022-11-20T19:32:04.338Z,3.07
2022-11-20T19:34:31.368Z,2.30
2022-11-20T19:36:57.959Z,2.60
2022-11-20T19:39:24.539Z,2.50
2022-11-20T19:41:51.071Z,2.40
2022-11-20T19:44:17.822Z,2.43
2022-11-20T19:46:44.687Z,2.47
2022-11-20T19:49:13.874Z,2.43
2022-11-20T19:51:45.737Z,2.50
2022-11-20T19:54:12.763Z,2.00
2022-11-20T19:56:39.217Z,2.60
2022-11-20T19:59:05.663Z,2.03
2022-11-20T20:01:32.270Z,1.90
2022-11-20T20:04:05.117Z,2.27
2022-11-20T20:06:33.508Z,2.50
2022-11-20T20:09:04.178Z,2.20
2022-11-20T20:11:32.913Z,2.10
2022-11-20T20:14:04.287Z,2.00
2022-11-20T20:16:30.976Z,2.53
2022-11-20T20:18:59.381Z,3.97
2022-11-20T20:21:25.769Z,2.03
2022-11-20T20:23:55.756Z,1.70
2022-11-20T20:26:23.962Z,1.70
2022-11-20T20:28:50.880Z,1.10
2022-11-20T20:31:20.923Z,1.20
2022-11-20T20:33:47.281Z,2.20
2022-11-20T20:36:16.310Z,1.47
2022-11-20T20:38:44.126Z,1.70
2022-11-20T20:41:10.567Z,1.50
2022-11-20T20:43:56.546Z,3.23
2022-11-20T20:46:23.615Z,1.27
2022-11-20T20:48:54.197Z,3.97
2022-11-20T20:51:21.127Z,1.33
2022-11-20T20:53:47.485Z,1.20
2022-11-20T20:56:14.017Z,1.87
2022-11-20T20:58:40.953Z,3.00
2022-11-20T21:01:09.543Z,2.00
2022-11-20T21:03:36.391Z,1.43
2022-11-20T21:06:04.433Z,1.77
2022-11-20T21:08:30.865Z,1.10
2022-11-20T21:11:06.191Z,1.73
2022-11-20T21:13:33.959Z,1.10
2022-11-20T21:16:00.655Z,1.00
2022-11-20T21:18:27.412Z,1.10
2022-11-20T21:21:12.994Z,1.17
2022-11-20T21:23:39.749Z,1.30
2022-11-20T21:26:08.096Z,1.13
2022-11-20T21:28:37.303Z,1.10
2022-11-20T21:31:09.157Z,1.40
2022-11-20T21:33:37.493Z,1.47
2022-11-20T21:36:04.169Z,1.10
2022-11-20T21:38:30.511Z,1.70
2022-11-20T21:41:00.501Z,1.50
2022-11-20T21:43:27.570Z,2.10
2022-11-20T21:45:56.494Z,1.67
2022-11-20T21:48:23.509Z,1.20
2022-11-20T21:50:49.821Z,1.40
2022-11-20T21:53:16.138Z,2.50
2022-11-20T21:55:42.482Z,1.20
2022-11-20T21:58:08.860Z,1.73
2022-11-20T22:00:35.179Z,1.27
2022-11-20T22:03:01.577Z,1.67
2022-11-20T22:05:27.894Z,1.40
2022-11-20T22:07:54.370Z,1.37
2022-11-20T22:10:20.764Z,1.40
2022-11-20T22:12:47.141Z,1.60
2022-11-20T22:15:13.694Z,1.37
2022-11-20T22:18:15.262Z,1.50
2022-11-20T22:20:41.639Z,1.30
2022-11-20T22:23:07.994Z,1.80
2022-11-20T22:25:34.386Z,1.40
2022-11-20T22:28:00.756Z,1.17
2022-11-20T22:30:27.102Z,1.60
2022-11-20T22:32:55.596Z,1.43
2022-11-20T22:35:22.324Z,1.43
2022-11-20T22:37:49.475Z,1.50
2022-11-20T22:40:16.361Z,1.50
2022-11-20T22:42:46.440Z,1.93
2022-11-20T22:45:13.949Z,2.30
2022-11-20T22:47:40.281Z,1.57
2022-11-20T22:50:07.032Z,1.50
2022-11-20T22:52:33.539Z,1.50
2022-11-20T22:54:59.838Z,1.67
2022-11-20T22:57:26.235Z,1.40
2022-11-20T23:00:02.161Z,1.50
2022-11-20T23:02:28.497Z,1.87
2022-11-20T23:04:54.932Z,1.33
2022-11-20T23:07:21.291Z,1.37
2022-11-20T23:09:47.630Z,1.50
2022-11-20T23:12:13.977Z,1.47
2022-11-20T23:14:40.594Z,1.83
2022-11-20T23:17:06.917Z,1.63
2022-11-20T23:19:33.218Z,1.53
2022-11-20T23:21:59.544Z,1.70
2022-11-20T23:24:26.084Z,3.00
2022-11-20T23:26:52.851Z,1.87
2022-11-20T23:29:19.190Z,2.40
2022-11-20T23:31:45.577Z,2.17
2022-11-20T23:34:12.070Z,1.67
2022-11-20T23:36:38.429Z,1.97
2022-11-20T23:39:04.817Z,2.17
2022-11-20T23:41:31.153Z,2.03
2022-11-20T23:43:57.469Z,2.00
2022-11-20T23:46:23.793Z,2.20
2022-11-20T23:48:59.509Z,2.03
2022-11-20T23:51:25.847Z,2.30
2022-11-20T23:53:52.198Z,1.90
2022-11-20T23:56:18.543Z,2.40
2022-11-20T23:58:44.931Z,2.40
